sensor_id;sensor_type;location;lat;lon;timestamp;P1;durP1;ratioP1;P2;durP2;ratioP2
77246;SDS011;66279;42.820;23.374;2023-05-07T00:00:19;3.13;;;2.30;;
77246;SDS011;66279;42.820;23.374;2023-05-07T00:02:44;2.67;;;2.33;;
77246;SDS011;66279;42.820;23.374;2023-05-07T00:05:11;4.93;;;2.83;;
77246;SDS011;66279;42.820;23.374;2023-05-07T00:07:36;2.83;;;2.40;;
77246;SDS011;66279;42.820;23.374;2023-05-07T00:10:02;3.33;;;2.70;;
77246;SDS011;66279;42.820;23.374;2023-05-07T00:12:29;4.75;;;2.58;;
77246;SDS011;66279;42.820;23.374;2023-05-07T00:15:03;3.55;;;2.40;;
77246;SDS011;66279;42.820;23.374;2023-05-07T00:17:30;2.55;;;2.10;;
77246;SDS011;66279;42.820;23.374;2023-05-07T00:19:56;2.90;;;2.42;;
77246;SDS011;66279;42.820;23.374;2023-05-07T00:22:21;3.40;;;2.40;;
77246;SDS011;66279;42.820;23.374;2023-05-07T00:24:47;4.35;;;2.63;;
77246;SDS011;66279;42.820;23.374;2023-05-07T00:27:12;3.63;;;2.42;;
77246;SDS011;66279;42.820;23.374;2023-05-07T00:29:38;2.75;;;2.47;;
77246;SDS011;66279;42.820;23.374;2023-05-07T00:32:04;12.10;;;5.55;;
77246;SDS011;66279;42.820;23.374;2023-05-07T00:34:30;14.00;;;6.38;;
77246;SDS011;66279;42.820;23.374;2023-05-07T00:36:55;5.25;;;2.92;;
77246;SDS011;66279;42.820;23.374;2023-05-07T00:39:20;5.60;;;3.08;;
77246;SDS011;66279;42.820;23.374;2023-05-07T00:41:46;3.00;;;2.70;;
77246;SDS011;66279;42.820;23.374;2023-05-07T00:44:12;7.43;;;3.15;;
77246;SDS011;66279;42.820;23.374;2023-05-07T00:46:38;5.00;;;2.88;;
77246;SDS011;66279;42.820;23.374;2023-05-07T00:49:03;3.60;;;2.85;;
77246;SDS011;66279;42.820;23.374;2023-05-07T00:51:30;3.20;;;2.30;;
77246;SDS011;66279;42.820;23.374;2023-05-07T00:53:55;3.95;;;2.67;;
77246;SDS011;66279;42.820;23.374;2023-05-07T00:56:21;9.80;;;2.70;;
77246;SDS011;66279;42.820;23.374;2023-05-07T00:58:47;2.72;;;2.28;;
77246;SDS011;66279;42.820;23.374;2023-05-07T01:01:13;3.50;;;2.60;;
77246;SDS011;66279;42.820;23.374;2023-05-07T01:03:41;3.85;;;2.75;;
77246;SDS011;66279;42.820;23.374;2023-05-07T01:06:07;6.93;;;3.28;;
77246;SDS011;66279;42.820;23.374;2023-05-07T01:08:37;8.82;;;3.15;;
77246;SDS011;66279;42.820;23.374;2023-05-07T01:11:05;4.03;;;2.72;;
77246;SDS011;66279;42.820;23.374;2023-05-07T01:13:32;3.17;;;2.20;;
77246;SDS011;66279;42.820;23.374;2023-05-07T01:15:59;3.25;;;2.33;;
77246;SDS011;66279;42.820;23.374;2023-05-07T01:18:25;4.45;;;2.65;;
77246;SDS011;66279;42.820;23.374;2023-05-07T01:20:52;3.55;;;2.63;;
77246;SDS011;66279;42.820;23.374;2023-05-07T01:23:18;9.07;;;4.55;;
77246;SDS011;66279;42.820;23.374;2023-05-07T01:25:50;6.63;;;3.65;;
77246;SDS011;66279;42.820;23.374;2023-05-07T01:28:19;11.25;;;4.97;;
77246;SDS011;66279;42.820;23.374;2023-05-07T01:30:52;6.30;;;3.10;;
77246;SDS011;66279;42.820;23.374;2023-05-07T01:33:21;4.32;;;3.00;;
77246;SDS011;66279;42.820;23.374;2023-05-07T01:35:48;6.53;;;3.90;;
77246;SDS011;66279;42.820;23.374;2023-05-07T01:38:16;5.72;;;3.60;;
77246;SDS011;66279;42.820;23.374;2023-05-07T01:40:43;3.70;;;2.60;;
77246;SDS011;66279;42.820;23.374;2023-05-07T01:43:09;4.70;;;2.65;;
77246;SDS011;66279;42.820;23.374;2023-05-07T01:45:35;4.60;;;2.58;;
77246;SDS011;66279;42.820;23.374;2023-05-07T01:48:02;3.95;;;3.10;;
77246;SDS011;66279;42.820;23.374;2023-05-07T01:50:27;3.58;;;2.95;;
77246;SDS011;66279;42.820;23.374;2023-05-07T01:52:54;4.47;;;2.85;;
77246;SDS011;66279;42.820;23.374;2023-05-07T01:55:20;4.35;;;3.30;;
77246;SDS011;66279;42.820;23.374;2023-05-07T01:57:45;4.70;;;2.85;;
77246;SDS011;66279;42.820;23.374;2023-05-07T02:00:11;4.78;;;3.05;;
77246;SDS011;66279;42.820;23.374;2023-05-07T02:02:37;4.70;;;3.50;;
77246;SDS011;66279;42.820;23.374;2023-05-07T02:05:03;4.07;;;3.03;;
77246;SDS011;66279;42.820;23.374;2023-05-07T02:07:29;5.55;;;3.35;;
77246;SDS011;66279;42.820;23.374;2023-05-07T02:09:55;5.13;;;3.13;;
77246;SDS011;66279;42.820;23.374;2023-05-07T02:12:20;4.63;;;2.75;;
77246;SDS011;66279;42.820;23.374;2023-05-07T02:14:46;4.20;;;3.03;;
77246;SDS011;66279;42.820;23.374;2023-05-07T02:17:12;5.90;;;3.13;;
77246;SDS011;66279;42.820;23.374;2023-05-07T02:19:37;4.90;;;2.65;;
77246;SDS011;66279;42.820;23.374;2023-05-07T02:22:03;4.80;;;3.08;;
77246;SDS011;66279;42.820;23.374;2023-05-07T02:24:28;3.38;;;2.67;;
77246;SDS011;66279;42.820;23.374;2023-05-07T02:26:54;5.18;;;3.38;;
77246;SDS011;66279;42.820;23.374;2023-05-07T02:29:19;3.38;;;2.50;;
77246;SDS011;66279;42.820;23.374;2023-05-07T02:31:45;3.20;;;2.90;;
77246;SDS011;66279;42.820;23.374;2023-05-07T02:34:10;5.93;;;3.28;;
77246;SDS011;66279;42.820;23.374;2023-05-07T02:36:36;4.30;;;3.10;;
77246;SDS011;66279;42.820;23.374;2023-05-07T02:39:01;4.78;;;3.25;;
77246;SDS011;66279;42.820;23.374;2023-05-07T02:41:27;4.57;;;3.33;;
77246;SDS011;66279;42.820;23.374;2023-05-07T02:43:53;5.20;;;3.25;;
77246;SDS011;66279;42.820;23.374;2023-05-07T02:46:19;4.82;;;3.42;;
77246;SDS011;66279;42.820;23.374;2023-05-07T02:48:44;6.10;;;3.40;;
77246;SDS011;66279;42.820;23.374;2023-05-07T02:51:10;5.60;;;3.70;;
77246;SDS011;66279;42.820;23.374;2023-05-07T02:53:35;4.80;;;3.67;;
77246;SDS011;66279;42.820;23.374;2023-05-07T02:56:01;8.43;;;3.95;;
77246;SDS011;66279;42.820;23.374;2023-05-07T02:58:27;11.20;;;4.68;;
77246;SDS011;66279;42.820;23.374;2023-05-07T03:00:53;10.23;;;4.72;;
77246;SDS011;66279;42.820;23.374;2023-05-07T03:03:21;7.60;;;4.07;;
77246;SDS011;66279;42.820;23.374;2023-05-07T03:05:47;7.15;;;4.88;;
77246;SDS011;66279;42.820;23.374;2023-05-07T03:08:12;6.95;;;4.70;;
77246;SDS011;66279;42.820;23.374;2023-05-07T03:10:38;8.02;;;4.35;;
77246;SDS011;66279;42.820;23.374;2023-05-07T03:13:04;5.72;;;4.28;;
77246;SDS011;66279;42.820;23.374;2023-05-07T03:15:30;6.15;;;4.65;;
77246;SDS011;66279;42.820;23.374;2023-05-07T03:17:55;7.50;;;3.92;;
77246;SDS011;66279;42.820;23.374;2023-05-07T03:20:21;6.93;;;4.35;;
77246;SDS011;66279;42.820;23.374;2023-05-07T03:22:46;6.90;;;4.60;;
77246;SDS011;66279;42.820;23.374;2023-05-07T03:25:12;4.65;;;3.65;;
77246;SDS011;66279;42.820;23.374;2023-05-07T03:27:39;6.88;;;4.65;;
77246;SDS011;66279;42.820;23.374;2023-05-07T03:30:05;8.02;;;4.53;;
77246;SDS011;66279;42.820;23.374;2023-05-07T03:32:32;5.50;;;4.25;;
77246;SDS011;66279;42.820;23.374;2023-05-07T03:34:57;7.05;;;4.40;;
77246;SDS011;66279;42.820;23.374;2023-05-07T03:37:23;7.93;;;5.30;;
77246;SDS011;66279;42.820;23.374;2023-05-07T03:39:48;8.77;;;5.18;;
77246;SDS011;66279;42.820;23.374;2023-05-07T03:42:14;7.43;;;5.05;;
77246;SDS011;66279;42.820;23.374;2023-05-07T03:44:40;6.43;;;5.03;;
77246;SDS011;66279;42.820;23.374;2023-05-07T03:47:05;8.00;;;5.25;;
77246;SDS011;66279;42.820;23.374;2023-05-07T03:49:31;7.57;;;5.00;;
77246;SDS011;66279;42.820;23.374;2023-05-07T03:51:56;7.55;;;5.53;;
77246;SDS011;66279;42.820;23.374;2023-05-07T03:54:22;8.30;;;5.63;;
77246;SDS011;66279;42.820;23.374;2023-05-07T03:56:47;9.02;;;5.90;;
77246;SDS011;66279;42.820;23.374;2023-05-07T03:59:13;6.63;;;5.80;;
77246;SDS011;66279;42.820;23.374;2023-05-07T04:01:39;8.32;;;5.55;;
77246;SDS011;66279;42.820;23.374;2023-05-07T04:04:05;6.85;;;4.72;;
77246;SDS011;66279;42.820;23.374;2023-05-07T04:06:31;7.53;;;5.35;;
77246;SDS011;66279;42.820;23.374;2023-05-07T04:08:56;7.57;;;5.65;;
77246;SDS011;66279;42.820;23.374;2023-05-07T04:11:22;13.60;;;7.28;;
77246;SDS011;66279;42.820;23.374;2023-05-07T04:13:48;9.27;;;7.65;;
77246;SDS011;66279;42.820;23.374;2023-05-07T04:16:13;10.68;;;7.18;;
77246;SDS011;66279;42.820;23.374;2023-05-07T04:18:39;8.57;;;6.38;;
77246;SDS011;66279;42.820;23.374;2023-05-07T04:21:05;13.88;;;9.27;;
77246;SDS011;66279;42.820;23.374;2023-05-07T04:23:30;20.38;;;14.43;;
77246;SDS011;66279;42.820;23.374;2023-05-07T04:25:56;17.52;;;10.88;;
77246;SDS011;66279;42.820;23.374;2023-05-07T04:28:22;14.35;;;9.05;;
77246;SDS011;66279;42.820;23.374;2023-05-07T04:30:48;17.52;;;11.65;;
77246;SDS011;66279;42.820;23.374;2023-05-07T04:33:14;25.65;;;18.08;;
77246;SDS011;66279;42.820;23.374;2023-05-07T04:35:41;17.05;;;13.65;;
77246;SDS011;66279;42.820;23.374;2023-05-07T04:38:07;10.25;;;7.80;;
77246;SDS011;66279;42.820;23.374;2023-05-07T04:40:33;17.80;;;9.02;;
77246;SDS011;66279;42.820;23.374;2023-05-07T04:43:00;13.02;;;8.18;;
77246;SDS011;66279;42.820;23.374;2023-05-07T04:45:26;9.35;;;6.47;;
77246;SDS011;66279;42.820;23.374;2023-05-07T04:47:51;10.07;;;6.72;;
77246;SDS011;66279;42.820;23.374;2023-05-07T04:50:17;8.95;;;5.95;;
77246;SDS011;66279;42.820;23.374;2023-05-07T04:52:44;13.70;;;10.75;;
77246;SDS011;66279;42.820;23.374;2023-05-07T04:55:10;12.75;;;9.93;;
77246;SDS011;66279;42.820;23.374;2023-05-07T04:57:36;16.92;;;11.63;;
77246;SDS011;66279;42.820;23.374;2023-05-07T05:00:02;13.15;;;9.63;;
77246;SDS011;66279;42.820;23.374;2023-05-07T05:02:29;9.35;;;7.38;;
77246;SDS011;66279;42.820;23.374;2023-05-07T05:04:55;13.88;;;10.27;;
77246;SDS011;66279;42.820;23.374;2023-05-07T05:07:20;9.25;;;7.35;;
77246;SDS011;66279;42.820;23.374;2023-05-07T05:09:46;11.65;;;7.63;;
77246;SDS011;66279;42.820;23.374;2023-05-07T05:12:11;10.48;;;7.32;;
77246;SDS011;66279;42.820;23.374;2023-05-07T05:14:36;5.68;;;4.95;;
77246;SDS011;66279;42.820;23.374;2023-05-07T05:17:02;8.27;;;6.10;;
77246;SDS011;66279;42.820;23.374;2023-05-07T05:19:27;8.15;;;6.07;;
77246;SDS011;66279;42.820;23.374;2023-05-07T05:21:53;7.43;;;5.88;;
77246;SDS011;66279;42.820;23.374;2023-05-07T05:24:19;8.73;;;5.80;;
77246;SDS011;66279;42.820;23.374;2023-05-07T05:26:45;7.78;;;6.95;;
77246;SDS011;66279;42.820;23.374;2023-05-07T05:29:10;8.32;;;5.93;;
77246;SDS011;66279;42.820;23.374;2023-05-07T05:31:36;8.95;;;5.50;;
77246;SDS011;66279;42.820;23.374;2023-05-07T05:34:02;6.65;;;5.20;;
77246;SDS011;66279;42.820;23.374;2023-05-07T05:36:28;8.52;;;7.57;;
77246;SDS011;66279;42.820;23.374;2023-05-07T05:38:54;6.07;;;4.72;;
77246;SDS011;66279;42.820;23.374;2023-05-07T05:41:20;14.90;;;9.45;;
77246;SDS011;66279;42.820;23.374;2023-05-07T05:43:46;6.45;;;4.50;;
77246;SDS011;66279;42.820;23.374;2023-05-07T05:46:12;7.78;;;5.32;;
77246;SDS011;66279;42.820;23.374;2023-05-07T05:48:37;6.28;;;5.38;;
77246;SDS011;66279;42.820;23.374;2023-05-07T05:51:03;9.52;;;5.78;;
77246;SDS011;66279;42.820;23.374;2023-05-07T05:53:28;6.65;;;4.82;;
77246;SDS011;66279;42.820;23.374;2023-05-07T05:55:54;9.27;;;5.15;;
77246;SDS011;66279;42.820;23.374;2023-05-07T05:58:19;8.68;;;4.97;;
77246;SDS011;66279;42.820;23.374;2023-05-07T06:00:45;6.28;;;5.00;;
77246;SDS011;66279;42.820;23.374;2023-05-07T06:03:11;5.68;;;4.60;;
77246;SDS011;66279;42.820;23.374;2023-05-07T06:05:36;7.63;;;5.22;;
77246;SDS011;66279;42.820;23.374;2023-05-07T06:08:02;6.40;;;4.75;;
77246;SDS011;66279;42.820;23.374;2023-05-07T06:10:28;6.57;;;5.22;;
77246;SDS011;66279;42.820;23.374;2023-05-07T06:12:54;9.57;;;5.18;;
77246;SDS011;66279;42.820;23.374;2023-05-07T06:15:20;7.55;;;5.00;;
77246;SDS011;66279;42.820;23.374;2023-05-07T06:17:45;11.07;;;7.53;;
77246;SDS011;66279;42.820;23.374;2023-05-07T06:20:11;7.82;;;5.72;;
77246;SDS011;66279;42.820;23.374;2023-05-07T06:22:36;8.07;;;5.00;;
77246;SDS011;66279;42.820;23.374;2023-05-07T06:25:02;6.72;;;4.88;;
77246;SDS011;66279;42.820;23.374;2023-05-07T06:27:27;6.00;;;4.68;;
77246;SDS011;66279;42.820;23.374;2023-05-07T06:29:53;6.80;;;4.50;;
77246;SDS011;66279;42.820;23.374;2023-05-07T06:32:18;5.45;;;4.35;;
77246;SDS011;66279;42.820;23.374;2023-05-07T06:34:44;5.05;;;3.97;;
77246;SDS011;66279;42.820;23.374;2023-05-07T06:37:09;4.68;;;3.78;;
77246;SDS011;66279;42.820;23.374;2023-05-07T06:39:35;5.03;;;4.15;;
77246;SDS011;66279;42.820;23.374;2023-05-07T06:42:01;5.75;;;4.30;;
77246;SDS011;66279;42.820;23.374;2023-05-07T06:44:27;4.30;;;3.90;;
77246;SDS011;66279;42.820;23.374;2023-05-07T06:46:52;4.75;;;4.15;;
77246;SDS011;66279;42.820;23.374;2023-05-07T06:49:18;5.53;;;4.00;;
77246;SDS011;66279;42.820;23.374;2023-05-07T06:51:43;7.13;;;4.45;;
77246;SDS011;66279;42.820;23.374;2023-05-07T06:54:09;5.47;;;4.13;;
77246;SDS011;66279;42.820;23.374;2023-05-07T06:56:34;5.35;;;3.83;;
77246;SDS011;66279;42.820;23.374;2023-05-07T06:59:00;10.02;;;8.15;;
77246;SDS011;66279;42.820;23.374;2023-05-07T07:01:26;9.60;;;6.32;;
77246;SDS011;66279;42.820;23.374;2023-05-07T07:03:52;5.55;;;3.80;;
77246;SDS011;66279;42.820;23.374;2023-05-07T07:06:17;6.05;;;3.65;;
77246;SDS011;66279;42.820;23.374;2023-05-07T07:08:43;9.35;;;5.68;;
77246;SDS011;66279;42.820;23.374;2023-05-07T07:11:09;7.30;;;6.18;;
77246;SDS011;66279;42.820;23.374;2023-05-07T07:13:35;4.68;;;4.20;;
77246;SDS011;66279;42.820;23.374;2023-05-07T07:16:00;9.77;;;5.75;;
77246;SDS011;66279;42.820;23.374;2023-05-07T07:18:26;4.50;;;3.67;;
77246;SDS011;66279;42.820;23.374;2023-05-07T07:20:52;7.82;;;4.55;;
77246;SDS011;66279;42.820;23.374;2023-05-07T07:23:18;5.30;;;3.60;;
77246;SDS011;66279;42.820;23.374;2023-05-07T07:25:44;4.68;;;3.30;;
77246;SDS011;66279;42.820;23.374;2023-05-07T07:28:09;4.30;;;3.47;;
77246;SDS011;66279;42.820;23.374;2023-05-07T07:30:36;7.88;;;3.70;;
77246;SDS011;66279;42.820;23.374;2023-05-07T07:33:02;3.95;;;3.25;;
77246;SDS011;66279;42.820;23.374;2023-05-07T07:35:31;4.28;;;3.78;;
77246;SDS011;66279;42.820;23.374;2023-05-07T07:37:57;4.88;;;3.58;;
77246;SDS011;66279;42.820;23.374;2023-05-07T07:40:23;5.82;;;3.40;;
77246;SDS011;66279;42.820;23.374;2023-05-07T07:42:50;5.55;;;3.55;;
77246;SDS011;66279;42.820;23.374;2023-05-07T07:45:16;4.38;;;3.38;;
77246;SDS011;66279;42.820;23.374;2023-05-07T07:47:41;3.75;;;3.05;;
77246;SDS011;66279;42.820;23.374;2023-05-07T07:50:07;3.83;;;3.10;;
77246;SDS011;66279;42.820;23.374;2023-05-07T07:52:33;4.25;;;2.85;;
77246;SDS011;66279;42.820;23.374;2023-05-07T07:54:59;4.25;;;2.92;;
77246;SDS011;66279;42.820;23.374;2023-05-07T07:57:25;3.17;;;2.78;;
77246;SDS011;66279;42.820;23.374;2023-05-07T07:59:50;3.78;;;2.55;;
77246;SDS011;66279;42.820;23.374;2023-05-07T08:02:16;3.65;;;2.72;;
77246;SDS011;66279;42.820;23.374;2023-05-07T08:04:42;2.97;;;2.55;;
77246;SDS011;66279;42.820;23.374;2023-05-07T08:07:08;4.88;;;2.75;;
77246;SDS011;66279;42.820;23.374;2023-05-07T08:09:35;3.88;;;2.67;;
77246;SDS011;66279;42.820;23.374;2023-05-07T08:12:01;4.63;;;2.92;;
77246;SDS011;66279;42.820;23.374;2023-05-07T08:14:27;4.15;;;2.78;;
77246;SDS011;66279;42.820;23.374;2023-05-07T08:16:53;2.97;;;2.25;;
77246;SDS011;66279;42.820;23.374;2023-05-07T08:19:19;4.38;;;3.03;;
77246;SDS011;66279;42.820;23.374;2023-05-07T08:21:45;2.40;;;2.20;;
77246;SDS011;66279;42.820;23.374;2023-05-07T08:24:13;2.30;;;2.05;;
77246;SDS011;66279;42.820;23.374;2023-05-07T08:26:39;4.75;;;2.75;;
77246;SDS011;66279;42.820;23.374;2023-05-07T08:29:05;3.42;;;2.72;;
77246;SDS011;66279;42.820;23.374;2023-05-07T08:31:30;3.65;;;2.33;;
77246;SDS011;66279;42.820;23.374;2023-05-07T08:33:56;3.00;;;2.13;;
77246;SDS011;66279;42.820;23.374;2023-05-07T08:36:23;2.92;;;2.42;;
77246;SDS011;66279;42.820;23.374;2023-05-07T08:38:48;3.92;;;2.53;;
77246;SDS011;66279;42.820;23.374;2023-05-07T08:41:15;5.18;;;2.85;;
77246;SDS011;66279;42.820;23.374;2023-05-07T08:43:41;3.20;;;2.67;;
77246;SDS011;66279;42.820;23.374;2023-05-07T08:46:06;4.72;;;3.10;;
77246;SDS011;66279;42.820;23.374;2023-05-07T08:48:34;2.75;;;2.40;;
77246;SDS011;66279;42.820;23.374;2023-05-07T08:51:00;7.07;;;2.58;;
77246;SDS011;66279;42.820;23.374;2023-05-07T08:53:26;4.10;;;2.55;;
77246;SDS011;66279;42.820;23.374;2023-05-07T08:55:52;3.85;;;2.65;;
77246;SDS011;66279;42.820;23.374;2023-05-07T08:58:18;9.15;;;5.90;;
77246;SDS011;66279;42.820;23.374;2023-05-07T09:00:44;5.57;;;3.22;;
77246;SDS011;66279;42.820;23.374;2023-05-07T09:03:09;3.20;;;2.78;;
77246;SDS011;66279;42.820;23.374;2023-05-07T09:08:03;3.50;;;3.00;;
77246;SDS011;66279;42.820;23.374;2023-05-07T09:10:29;5.65;;;3.05;;
77246;SDS011;66279;42.820;23.374;2023-05-07T09:12:58;3.10;;;2.80;;
77246;SDS011;66279;42.820;23.374;2023-05-07T09:15:24;3.88;;;2.70;;
77246;SDS011;66279;42.820;23.374;2023-05-07T09:17:50;5.45;;;2.80;;
77246;SDS011;66279;42.820;23.374;2023-05-07T09:20:15;5.20;;;2.78;;
77246;SDS011;66279;42.820;23.374;2023-05-07T09:22:41;5.95;;;3.53;;
77246;SDS011;66279;42.820;23.374;2023-05-07T09:25:07;3.70;;;2.42;;
77246;SDS011;66279;42.820;23.374;2023-05-07T09:27:34;5.00;;;1.98;;
77246;SDS011;66279;42.820;23.374;2023-05-07T09:30:02;2.67;;;2.05;;
77246;SDS011;66279;42.820;23.374;2023-05-07T09:32:35;2.72;;;2.33;;
77246;SDS011;66279;42.820;23.374;2023-05-07T09:35:04;5.10;;;2.35;;
77246;SDS011;66279;42.820;23.374;2023-05-07T09:37:30;3.70;;;2.03;;
77246;SDS011;66279;42.820;23.374;2023-05-07T09:39:57;2.45;;;1.80;;
77246;SDS011;66279;42.820;23.374;2023-05-07T09:42:26;7.18;;;2.13;;
77246;SDS011;66279;42.820;23.374;2023-05-07T09:44:52;8.90;;;2.70;;
77246;SDS011;66279;42.820;23.374;2023-05-07T09:47:20;2.60;;;1.75;;
77246;SDS011;66279;42.820;23.374;2023-05-07T09:49:49;2.53;;;1.58;;
77246;SDS011;66279;42.820;23.374;2023-05-07T09:52:15;3.20;;;2.35;;
77246;SDS011;66279;42.820;23.374;2023-05-07T09:54:41;3.53;;;2.20;;
77246;SDS011;66279;42.820;23.374;2023-05-07T09:57:09;7.10;;;3.15;;
77246;SDS011;66279;42.820;23.374;2023-05-07T09:59:37;2.25;;;1.48;;
77246;SDS011;66279;42.820;23.374;2023-05-07T10:02:04;2.42;;;1.98;;
77246;SDS011;66279;42.820;23.374;2023-05-07T10:04:30;1.75;;;1.50;;
77246;SDS011;66279;42.820;23.374;2023-05-07T10:06:56;1.67;;;1.50;;
77246;SDS011;66279;42.820;23.374;2023-05-07T10:09:23;5.53;;;3.15;;
77246;SDS011;66279;42.820;23.374;2023-05-07T10:11:50;5.03;;;2.42;;
77246;SDS011;66279;42.820;23.374;2023-05-07T10:14:16;3.05;;;1.90;;
77246;SDS011;66279;42.820;23.374;2023-05-07T10:16:42;4.95;;;3.42;;
77246;SDS011;66279;42.820;23.374;2023-05-07T10:19:09;11.93;;;3.83;;
77246;SDS011;66279;42.820;23.374;2023-05-07T10:21:39;2.53;;;2.00;;
77246;SDS011;66279;42.820;23.374;2023-05-07T10:24:09;6.28;;;1.90;;
77246;SDS011;66279;42.820;23.374;2023-05-07T10:26:42;17.98;;;5.35;;
77246;SDS011;66279;42.820;23.374;2023-05-07T10:29:33;33.58;;;5.20;;
77246;SDS011;66279;42.820;23.374;2023-05-07T10:34:29;29.33;;;4.95;;
77246;SDS011;66279;42.820;23.374;2023-05-07T10:37:00;21.58;;;7.07;;
77246;SDS011;66279;42.820;23.374;2023-05-07T10:39:26;1.73;;;1.60;;
77246;SDS011;66279;42.820;23.374;2023-05-07T10:41:52;21.60;;;9.73;;
77246;SDS011;66279;42.820;23.374;2023-05-07T10:44:27;4.28;;;2.63;;
77246;SDS011;66279;42.820;23.374;2023-05-07T10:47:15;3.35;;;2.05;;
77246;SDS011;66279;42.820;23.374;2023-05-07T10:52:13;3.75;;;1.80;;
77246;SDS011;66279;42.820;23.374;2023-05-07T10:57:46;1.92;;;1.55;;
77246;SDS011;66279;42.820;23.374;2023-05-07T11:05:24;3.25;;;1.48;;
77246;SDS011;66279;42.820;23.374;2023-05-07T11:07:53;4.70;;;1.58;;
77246;SDS011;66279;42.820;23.374;2023-05-07T11:10:20;1.30;;;1.20;;
77246;SDS011;66279;42.820;23.374;2023-05-07T11:12:46;1.73;;;1.50;;
77246;SDS011;66279;42.820;23.374;2023-05-07T11:15:31;2.05;;;1.50;;
77246;SDS011;66279;42.820;23.374;2023-05-07T11:17:59;1.45;;;1.35;;
77246;SDS011;66279;42.820;23.374;2023-05-07T11:20:44;1.65;;;1.48;;
77246;SDS011;66279;42.820;23.374;2023-05-07T11:23:59;2.13;;;1.45;;
77246;SDS011;66279;42.820;23.374;2023-05-07T11:28:42;2.45;;;1.63;;
77246;SDS011;66279;42.820;23.374;2023-05-07T11:31:09;2.17;;;1.67;;
77246;SDS011;66279;42.820;23.374;2023-05-07T11:33:36;2.05;;;1.40;;
77246;SDS011;66279;42.820;23.374;2023-05-07T11:36:03;2.42;;;1.63;;
77246;SDS011;66279;42.820;23.374;2023-05-07T11:38:30;2.15;;;1.95;;
77246;SDS011;66279;42.820;23.374;2023-05-07T11:40:59;3.55;;;1.50;;
77246;SDS011;66279;42.820;23.374;2023-05-07T11:43:30;3.50;;;1.50;;
77246;SDS011;66279;42.820;23.374;2023-05-07T11:46:04;1.98;;;1.80;;
77246;SDS011;66279;42.820;23.374;2023-05-07T11:48:36;3.15;;;1.88;;
77246;SDS011;66279;42.820;23.374;2023-05-07T11:51:04;2.97;;;1.45;;
77246;SDS011;66279;42.820;23.374;2023-05-07T11:53:38;2.03;;;1.67;;
77246;SDS011;66279;42.820;23.374;2023-05-07T11:56:10;1.98;;;1.55;;
77246;SDS011;66279;42.820;23.374;2023-05-07T11:58:40;2.63;;;1.60;;
77246;SDS011;66279;42.820;23.374;2023-05-07T12:01:10;2.00;;;1.67;;
77246;SDS011;66279;42.820;23.374;2023-05-07T12:03:36;2.22;;;1.85;;
77246;SDS011;66279;42.820;23.374;2023-05-07T12:06:02;2.55;;;1.50;;
77246;SDS011;66279;42.820;23.374;2023-05-07T12:08:31;1.98;;;1.58;;
77246;SDS011;66279;42.820;23.374;2023-05-07T12:10:56;1.90;;;1.25;;
77246;SDS011;66279;42.820;23.374;2023-05-07T12:13:23;2.00;;;1.33;;
77246;SDS011;66279;42.820;23.374;2023-05-07T12:15:54;1.63;;;1.38;;
77246;SDS011;66279;42.820;23.374;2023-05-07T12:18:20;2.92;;;2.25;;
77246;SDS011;66279;42.820;23.374;2023-05-07T12:20:48;1.63;;;1.30;;
77246;SDS011;66279;42.820;23.374;2023-05-07T12:23:15;3.55;;;2.17;;
77246;SDS011;66279;42.820;23.374;2023-05-07T12:25:41;3.97;;;1.90;;
77246;SDS011;66279;42.820;23.374;2023-05-07T12:28:17;2.70;;;1.60;;
77246;SDS011;66279;42.820;23.374;2023-05-07T12:30:44;1.88;;;1.45;;
77246;SDS011;66279;42.820;23.374;2023-05-07T12:33:11;1.95;;;1.73;;
77246;SDS011;66279;42.820;23.374;2023-05-07T12:35:38;3.78;;;1.42;;
77246;SDS011;66279;42.820;23.374;2023-05-07T12:38:11;2.63;;;1.63;;
77246;SDS011;66279;42.820;23.374;2023-05-07T12:40:39;2.13;;;1.60;;
77246;SDS011;66279;42.820;23.374;2023-05-07T12:43:06;3.17;;;1.67;;
77246;SDS011;66279;42.820;23.374;2023-05-07T12:45:36;2.70;;;1.50;;
77246;SDS011;66279;42.820;23.374;2023-05-07T12:48:03;1.95;;;1.70;;
77246;SDS011;66279;42.820;23.374;2023-05-07T12:50:32;1.95;;;1.25;;
77246;SDS011;66279;42.820;23.374;2023-05-07T12:52:58;2.10;;;1.60;;
77246;SDS011;66279;42.820;23.374;2023-05-07T12:55:24;2.85;;;1.50;;
77246;SDS011;66279;42.820;23.374;2023-05-07T12:57:50;1.58;;;1.48;;
77246;SDS011;66279;42.820;23.374;2023-05-07T13:00:17;2.75;;;1.77;;
77246;SDS011;66279;42.820;23.374;2023-05-07T13:02:58;2.67;;;1.38;;
77246;SDS011;66279;42.820;23.374;2023-05-07T13:05:23;3.42;;;1.40;;
77246;SDS011;66279;42.820;23.374;2023-05-07T13:07:52;1.63;;;1.10;;
77246;SDS011;66279;42.820;23.374;2023-05-07T13:10:19;2.05;;;1.67;;
77246;SDS011;66279;42.820;23.374;2023-05-07T13:12:44;2.15;;;1.30;;
77246;SDS011;66279;42.820;23.374;2023-05-07T13:15:10;2.28;;;1.40;;
77246;SDS011;66279;42.820;23.374;2023-05-07T13:17:35;1.50;;;1.30;;
77246;SDS011;66279;42.820;23.374;2023-05-07T13:20:01;2.42;;;1.30;;
77246;SDS011;66279;42.820;23.374;2023-05-07T13:22:26;1.65;;;1.33;;
77246;SDS011;66279;42.820;23.374;2023-05-07T13:24:52;2.10;;;0.90;;
77246;SDS011;66279;42.820;23.374;2023-05-07T13:27:18;1.35;;;1.23;;
77246;SDS011;66279;42.820;23.374;2023-05-07T13:29:44;2.15;;;1.42;;
77246;SDS011;66279;42.820;23.374;2023-05-07T13:32:10;2.42;;;1.60;;
77246;SDS011;66279;42.820;23.374;2023-05-07T13:34:35;1.60;;;1.20;;
77246;SDS011;66279;42.820;23.374;2023-05-07T13:37:02;2.20;;;1.40;;
77246;SDS011;66279;42.820;23.374;2023-05-07T13:39:27;3.00;;;1.10;;
77246;SDS011;66279;42.820;23.374;2023-05-07T13:41:53;2.03;;;1.20;;
77246;SDS011;66279;42.820;23.374;2023-05-07T13:44:18;1.30;;;1.20;;
77246;SDS011;66279;42.820;23.374;2023-05-07T13:46:43;1.27;;;1.02;;
77246;SDS011;66279;42.820;23.374;2023-05-07T13:49:10;1.52;;;1.33;;
77246;SDS011;66279;42.820;23.374;2023-05-07T13:51:36;1.60;;;1.40;;
77246;SDS011;66279;42.820;23.374;2023-05-07T13:54:01;3.50;;;1.35;;
77246;SDS011;66279;42.820;23.374;2023-05-07T13:56:28;1.83;;;1.35;;
77246;SDS011;66279;42.820;23.374;2023-05-07T13:58:55;1.42;;;1.20;;
77246;SDS011;66279;42.820;23.374;2023-05-07T14:01:21;2.30;;;1.40;;
77246;SDS011;66279;42.820;23.374;2023-05-07T14:03:47;3.85;;;1.40;;
77246;SDS011;66279;42.820;23.374;2023-05-07T14:06:12;2.30;;;1.52;;
77246;SDS011;66279;42.820;23.374;2023-05-07T14:08:38;2.20;;;1.58;;
77246;SDS011;66279;42.820;23.374;2023-05-07T14:11:03;3.20;;;1.30;;
77246;SDS011;66279;42.820;23.374;2023-05-07T14:13:29;1.90;;;1.45;;
77246;SDS011;66279;42.820;23.374;2023-05-07T14:15:56;2.70;;;1.40;;
77246;SDS011;66279;42.820;23.374;2023-05-07T14:18:21;2.15;;;1.55;;
77246;SDS011;66279;42.820;23.374;2023-05-07T14:20:47;4.22;;;1.50;;
77246;SDS011;66279;42.820;23.374;2023-05-07T14:23:14;2.05;;;1.73;;
77246;SDS011;66279;42.820;23.374;2023-05-07T14:25:39;1.92;;;1.48;;
77246;SDS011;66279;42.820;23.374;2023-05-07T14:28:06;4.82;;;1.60;;
77246;SDS011;66279;42.820;23.374;2023-05-07T14:30:31;3.45;;;1.38;;
77246;SDS011;66279;42.820;23.374;2023-05-07T14:32:57;2.35;;;1.40;;
77246;SDS011;66279;42.820;23.374;2023-05-07T14:35:22;1.83;;;1.45;;
77246;SDS011;66279;42.820;23.374;2023-05-07T14:37:48;1.98;;;1.40;;
77246;SDS011;66279;42.820;23.374;2023-05-07T14:40:14;2.60;;;1.58;;
77246;SDS011;66279;42.820;23.374;2023-05-07T14:42:39;2.42;;;1.30;;
77246;SDS011;66279;42.820;23.374;2023-05-07T14:45:05;2.90;;;1.42;;
77246;SDS011;66279;42.820;23.374;2023-05-07T14:47:31;2.13;;;1.63;;